createdAt,value
2018-07-06T00:03:07.934Z,99.90
2018-07-06T00:06:49.842Z,99.90
2018-07-06T00:10:31.697Z,99.90
2018-07-06T00:14:13.726Z,99.90
2018-07-06T00:17:55.544Z,99.90
2018-07-06T00:21:37.518Z,99.90
2018-07-06T00:25:19.648Z,99.90
2018-07-06T00:29:01.841Z,99.90
2018-07-06T00:32:43.725Z,99.90
2018-07-06T00:36:25.490Z,99.90
2018-07-06T00:40:07.393Z,99.90
2018-07-06T00:43:49.187Z,99.90
2018-07-06T00:47:31.166Z,99.90
2018-07-06T00:51:13.234Z,99.90
2018-07-06T00:54:55.484Z,99.90
2018-07-06T00:58:37.078Z,99.90
2018-07-06T01:02:19.010Z,99.90
2018-07-06T01:09:36.465Z,99.90
2018-07-06T01:13:18.271Z,99.90
2018-07-06T01:17:00.123Z,99.90
2018-07-06T01:20:41.930Z,99.90
2018-07-06T01:24:24.006Z,99.90
2018-07-06T01:28:05.826Z,99.90
2018-07-06T01:31:47.754Z,99.90
2018-07-06T01:35:29.724Z,99.90
2018-07-06T01:39:11.589Z,99.90
2018-07-06T01:42:53.470Z,99.90
2018-07-06T01:46:35.002Z,99.90
2018-07-06T01:50:16.956Z,99.90
2018-07-06T01:53:59.025Z,99.90
2018-07-06T01:57:40.934Z,99.90
2018-07-06T02:01:22.789Z,99.90
2018-07-06T02:05:04.824Z,99.90
2018-07-06T02:08:46.722Z,99.90
2018-07-06T02:16:04.476Z,99.90
2018-07-06T02:19:46.313Z,99.90
2018-07-06T02:23:28.056Z,99.90
2018-07-06T02:27:09.902Z,99.90
2018-07-06T02:30:51.866Z,99.90
2018-07-06T02:34:33.788Z,99.90
2018-07-06T02:41:51.564Z,99.90
2018-07-06T02:45:33.481Z,99.90
2018-07-06T02:49:15.574Z,99.90
2018-07-06T03:00:08.842Z,99.40
2018-07-06T03:03:50.644Z,97.80
2018-07-06T03:07:32.450Z,97.00
2018-07-06T03:11:14.406Z,97.20
2018-07-06T03:14:56.454Z,98.10
2018-07-06T03:18:38.442Z,97.40
2018-07-06T03:22:20.453Z,97.10
2018-07-06T03:26:02.298Z,96.50
2018-07-06T03:29:44.276Z,96.90
2018-07-06T03:33:26.332Z,97.70
2018-07-06T03:37:08.359Z,96.60
2018-07-06T03:40:50.230Z,96.60
2018-07-06T03:48:08.115Z,96.10
2018-07-06T03:51:50.030Z,96.60
2018-07-06T03:55:31.930Z,96.60
2018-07-06T03:59:14.037Z,95.80
2018-07-06T04:06:31.782Z,96.40
2018-07-06T04:10:13.726Z,96.40
2018-07-06T04:13:56.478Z,96.70
2018-07-06T04:17:38.346Z,97.20
2018-07-06T04:21:20.136Z,97.70
2018-07-06T04:25:02.090Z,98.20
2018-07-06T04:35:55.451Z,98.00
2018-07-06T04:39:37.388Z,97.90
2018-07-06T04:43:19.215Z,97.50
2018-07-06T04:47:01.061Z,97.20
2018-07-06T04:50:43.210Z,96.90
2018-07-06T04:54:25.097Z,97.40
2018-07-06T04:58:07.022Z,97.50
2018-07-06T05:01:48.705Z,97.30
2018-07-06T05:05:30.432Z,97.30
2018-07-06T05:09:12.266Z,98.00
2018-07-06T05:12:54.375Z,98.50
2018-07-06T05:16:36.358Z,98.80
2018-07-06T05:20:18.226Z,98.60
2018-07-06T05:24:00.342Z,99.20
2018-07-06T05:27:42.030Z,98.60
2018-07-06T05:31:23.872Z,99.10
2018-07-06T05:42:17.395Z,99.60
2018-07-06T05:45:59.462Z,99.90
2018-07-06T05:49:41.391Z,99.90
2018-07-06T05:53:23.304Z,99.90
2018-07-06T05:57:05.334Z,99.90
2018-07-06T06:00:47.977Z,99.90
2018-07-06T06:04:30.071Z,99.90
2018-07-06T06:07:52.897Z,99.90
2018-07-06T06:11:17.506Z,99.90
2018-07-06T06:14:42.200Z,99.90
2018-07-06T06:18:07.400Z,99.90
2018-07-06T06:21:32.245Z,99.90
2018-07-06T06:24:57.148Z,99.90
2018-07-06T06:28:21.897Z,99.90
2018-07-06T06:31:46.700Z,99.90
2018-07-06T06:35:13.402Z,99.90
2018-07-06T06:38:38.287Z,99.90
2018-07-06T06:42:03.220Z,99.90
2018-07-06T06:45:28.049Z,99.90
2018-07-06T06:48:53.096Z,99.90
2018-07-06T06:52:18.144Z,99.90
2018-07-06T06:59:07.988Z,99.90
2018-07-06T07:02:34.382Z,99.90
2018-07-06T07:05:59.379Z,99.90
2018-07-06T07:09:24.420Z,99.90
2018-07-06T07:16:13.828Z,99.90
2018-07-06T07:19:38.731Z,99.90
2018-07-06T07:23:03.661Z,99.90
2018-07-06T07:26:28.539Z,99.90
2018-07-06T07:29:54.331Z,99.80
2018-07-06T07:33:19.171Z,99.90
2018-07-06T07:36:45.171Z,99.90
2018-07-06T07:40:10.051Z,99.90
2018-07-06T07:46:59.327Z,99.80
2018-07-06T07:50:24.318Z,99.80
2018-07-06T07:54:06.183Z,98.60
2018-07-06T07:57:32.093Z,98.30
2018-07-06T08:00:57.055Z,98.50
2018-07-06T08:07:46.441Z,98.40
2018-07-06T08:11:11.311Z,98.50
2018-07-06T08:14:36.111Z,98.70
2018-07-06T08:18:00.815Z,99.10
2018-07-06T08:21:25.519Z,99.10
2018-07-06T08:24:50.235Z,97.60
2018-07-06T08:28:15.120Z,98.40
2018-07-06T08:31:40.084Z,98.10
2018-07-06T08:35:21.818Z,97.20
2018-07-06T08:38:46.636Z,97.10
2018-07-06T08:42:11.500Z,97.90
2018-07-06T08:49:02.041Z,97.00
2018-07-06T08:52:27.285Z,96.90
2018-07-06T08:55:52.021Z,97.20
2018-07-06T08:59:16.874Z,96.80
2018-07-06T09:06:06.381Z,97.20
2018-07-06T09:09:31.257Z,97.30
2018-07-06T09:12:56.074Z,97.50
2018-07-06T09:16:20.932Z,97.10
2018-07-06T09:23:11.542Z,97.70
2018-07-06T09:26:36.333Z,97.80
2018-07-06T09:30:01.129Z,97.50
2018-07-06T09:33:25.954Z,97.10
2018-07-06T09:41:39.510Z,97.40
2018-07-06T09:45:04.341Z,97.10
2018-07-06T09:48:29.225Z,95.70
2018-07-06T09:51:54.205Z,95.40
2018-07-06T09:55:18.871Z,95.40
2018-07-06T09:58:43.517Z,95.20
2018-07-06T10:02:08.131Z,95.50
2018-07-06T10:05:32.881Z,95.70
2018-07-06T10:08:57.624Z,96.20
2018-07-06T10:12:22.301Z,96.00
2018-07-06T10:15:46.978Z,96.00
2018-07-06T10:19:11.740Z,96.20
2018-07-06T10:22:36.621Z,96.00
2018-07-06T10:26:01.439Z,96.30
2018-07-06T10:30:10.565Z,97.00
2018-07-06T10:33:35.444Z,98.10
2018-07-06T10:37:00.271Z,97.00
2018-07-06T10:40:25.156Z,97.10
2018-07-06T10:47:14.839Z,96.90
2018-07-06T10:50:39.735Z,97.00
2018-07-06T10:54:06.027Z,96.70
2018-07-06T10:57:30.793Z,96.70
2018-07-06T11:04:26.760Z,95.90
2018-07-06T11:07:51.714Z,96.40
2018-07-06T11:11:16.488Z,95.50
2018-07-06T11:14:41.383Z,94.60
2018-07-06T11:18:06.348Z,94.60
2018-07-06T11:21:31.445Z,95.00
2018-07-06T11:24:56.321Z,94.20
2018-07-06T11:28:21.217Z,93.60
2018-07-06T11:31:45.978Z,94.80
2018-07-06T11:35:12.098Z,95.10
2018-07-06T11:38:36.980Z,95.60
2018-07-06T11:45:26.385Z,96.30
2018-07-06T11:48:52.260Z,96.70
2018-07-06T11:52:17.229Z,96.90
2018-07-06T11:55:43.207Z,96.70
2018-07-06T11:59:08.069Z,96.50
2018-07-06T12:02:33.063Z,96.10
2018-07-06T12:05:58.751Z,97.10
2018-07-06T12:09:24.474Z,96.10
2018-07-06T12:16:14.369Z,97.90
2018-07-06T12:19:40.236Z,97.80
2018-07-06T12:23:05.213Z,98.50
2018-07-06T12:26:30.358Z,98.90
2018-07-06T12:29:55.333Z,98.50
2018-07-06T12:33:20.207Z,98.20
2018-07-06T12:36:45.408Z,98.90
2018-07-06T12:40:10.902Z,99.20
2018-07-06T12:43:36.010Z,99.50
2018-07-06T12:50:27.302Z,99.60
2018-07-06T12:53:52.080Z,99.90
2018-07-06T12:57:16.848Z,99.90
2018-07-06T13:00:41.524Z,99.90
2018-07-06T13:04:06.497Z,99.90
2018-07-06T13:07:31.133Z,99.80
2018-07-06T13:10:55.869Z,99.90
2018-07-06T13:14:20.697Z,99.90
2018-07-06T13:17:48.321Z,99.90
2018-07-06T13:21:13.325Z,99.90
2018-07-06T13:24:38.162Z,99.90
2018-07-06T13:28:03.119Z,99.90
2018-07-06T13:31:28.066Z,99.90
2018-07-06T13:34:52.909Z,99.90
2018-07-06T13:38:17.931Z,97.70
2018-07-06T13:41:42.797Z,98.20
2018-07-06T13:45:07.729Z,98.70
2018-07-06T13:48:32.527Z,99.50
2018-07-06T13:51:57.421Z,99.30
2018-07-06T13:55:22.206Z,98.20
2018-07-06T13:58:47.006Z,98.60
2018-07-06T14:02:11.996Z,98.90
2018-07-06T14:05:36.682Z,98.40
2018-07-06T14:09:01.331Z,98.90
2018-07-06T14:12:26.039Z,98.30
2018-07-06T14:15:50.886Z,98.30
2018-07-06T14:19:15.898Z,98.70
2018-07-06T14:26:06.198Z,98.60
2018-07-06T14:29:32.477Z,97.80
2018-07-06T14:32:57.500Z,96.70
2018-07-06T14:36:22.394Z,96.80
2018-07-06T14:43:11.688Z,96.70
2018-07-06T14:46:36.502Z,97.50
2018-07-06T14:50:01.467Z,97.00
2018-07-06T14:53:27.415Z,97.60
2018-07-06T14:56:52.207Z,98.10
2018-07-06T15:03:41.447Z,98.20
2018-07-06T15:07:06.292Z,97.20
2018-07-06T15:10:31.065Z,97.30
2018-07-06T15:17:20.203Z,95.70
2018-07-06T15:20:45.049Z,95.60
2018-07-06T15:24:09.852Z,95.50
2018-07-06T15:27:34.674Z,95.60
2018-07-06T15:34:23.794Z,94.90
2018-07-06T15:37:48.544Z,94.70
2018-07-06T15:41:13.269Z,93.90
2018-07-06T15:44:37.963Z,93.60
2018-07-06T15:48:02.676Z,92.20
2018-07-06T15:54:51.880Z,91.80
2018-07-06T16:05:05.809Z,86.10
2018-07-06T16:08:30.520Z,86.80
2018-07-06T16:15:19.743Z,81.90
2018-07-06T16:18:44.385Z,81.10
2018-07-06T16:23:33.497Z,80.70
2018-07-06T16:26:58.178Z,81.50
2018-07-06T16:44:01.368Z,82.60
2018-07-06T16:47:26.185Z,83.60
2018-07-06T16:50:51.050Z,83.90
2018-07-06T16:57:42.520Z,83.60
2018-07-06T17:01:07.480Z,82.00
2018-07-06T17:04:32.143Z,79.80
2018-07-06T17:07:57.617Z,79.90
2018-07-06T17:11:22.637Z,78.30
2018-07-06T17:18:12.963Z,72.60
2018-07-06T17:21:38.565Z,75.80
2018-07-06T17:25:03.388Z,77.00
2018-07-06T17:31:52.610Z,75.00
2018-07-06T17:35:18.127Z,77.10
2018-07-06T17:38:43.925Z,74.40
2018-07-06T17:42:09.174Z,75.80
2018-07-06T17:45:33.962Z,77.00
2018-07-06T17:48:58.783Z,75.00
2018-07-06T17:52:24.468Z,76.00
2018-07-06T17:55:49.226Z,77.30
2018-07-06T17:59:13.913Z,76.70
2018-07-06T18:02:38.615Z,75.80
2018-07-06T18:06:03.400Z,76.10
2018-07-06T18:09:28.075Z,76.40
2018-07-06T18:16:18.603Z,75.20
2018-07-06T18:19:44.322Z,75.90
2018-07-06T18:23:09.121Z,77.70
2018-07-06T18:26:33.816Z,78.30
2018-07-06T18:29:58.482Z,81.00
2018-07-06T18:33:23.241Z,81.60
2018-07-06T18:36:47.994Z,83.90
2018-07-06T18:40:12.720Z,85.10
2018-07-06T18:43:37.466Z,86.70
2018-07-06T18:47:02.147Z,87.00
2018-07-06T18:50:26.872Z,88.30
2018-07-06T18:53:51.632Z,88.60
2018-07-06T18:57:16.476Z,90.10
2018-07-06T19:04:06.009Z,90.60
2018-07-06T19:07:30.910Z,91.00
2018-07-06T19:10:55.756Z,91.60
2018-07-06T19:14:20.547Z,91.30
2018-07-06T19:17:45.359Z,90.90
2018-07-06T19:21:10.164Z,91.90
2018-07-06T19:24:34.890Z,92.00
2018-07-06T19:27:59.560Z,92.50
2018-07-06T19:31:24.433Z,92.70
2018-07-06T19:34:49.109Z,93.10
2018-07-06T19:38:13.866Z,93.30
2018-07-06T19:41:38.579Z,93.80
2018-07-06T19:45:03.451Z,94.10
2018-07-06T19:48:28.240Z,94.30
2018-07-06T19:55:17.621Z,95.50
2018-07-06T19:58:42.334Z,96.20
2018-07-06T20:02:07.279Z,96.50
2018-07-06T20:05:31.962Z,97.10
2018-07-06T20:08:56.665Z,97.30
2018-07-06T20:12:21.467Z,97.00
2018-07-06T20:15:46.273Z,97.00
2018-07-06T20:19:11.040Z,97.30
2018-07-06T20:22:35.700Z,97.10
2018-07-06T20:26:00.394Z,97.60
2018-07-06T20:29:25.079Z,97.90
2018-07-06T20:32:49.870Z,98.30
2018-07-06T20:36:14.645Z,98.60
2018-07-06T20:39:39.510Z,98.70
2018-07-06T20:43:04.170Z,98.80
2018-07-06T20:46:29.009Z,99.10
2018-07-06T20:49:53.649Z,99.70
2018-07-06T20:53:19.380Z,99.30
2018-07-06T20:56:44.109Z,99.90
2018-07-06T21:06:57.714Z,99.40
2018-07-06T21:10:22.563Z,99.90
2018-07-06T21:13:47.245Z,99.80
2018-07-06T21:17:11.906Z,99.90
2018-07-06T21:20:36.672Z,99.90
2018-07-06T21:24:01.371Z,99.70
2018-07-06T21:27:26.094Z,99.70
2018-07-06T21:30:50.853Z,99.60
2018-07-06T21:34:15.525Z,99.60
2018-07-06T21:37:40.727Z,99.90
2018-07-06T21:41:06.472Z,99.90
2018-07-06T21:44:31.128Z,99.80
2018-07-06T21:47:55.791Z,99.90
2018-07-06T21:51:20.510Z,99.90
2018-07-06T21:54:45.174Z,99.90
2018-07-06T22:01:34.295Z,99.90
2018-07-06T22:04:58.956Z,99.90
2018-07-06T22:08:23.717Z,99.90
2018-07-06T22:11:49.115Z,99.90
2018-07-06T22:15:13.817Z,99.90
2018-07-06T22:18:38.547Z,99.90
2018-07-06T22:22:03.268Z,99.90
2018-07-06T22:25:27.981Z,99.90
2018-07-06T22:28:52.667Z,99.90
2018-07-06T22:32:17.357Z,99.90
2018-07-06T22:35:42.162Z,99.90
2018-07-06T22:39:08.405Z,99.90
2018-07-06T22:42:33.107Z,99.90
2018-07-06T22:45:58.855Z,99.90
2018-07-06T22:49:23.738Z,99.90
2018-07-06T22:52:48.603Z,99.90
2018-07-06T22:56:13.491Z,99.90
2018-07-06T22:59:38.397Z,99.90
2018-07-06T23:03:04.941Z,99.90
2018-07-06T23:06:29.627Z,99.90
2018-07-06T23:09:54.713Z,99.90
2018-07-06T23:13:19.435Z,99.90
2018-07-06T23:16:44.115Z,99.90
2018-07-06T23:20:08.874Z,99.90
2018-07-06T23:23:33.542Z,99.90
2018-07-06T23:26:58.210Z,99.90
2018-07-06T23:30:23.846Z,99.90
2018-07-06T23:33:48.508Z,99.90
2018-07-06T23:37:13.169Z,99.90
2018-07-06T23:40:37.872Z,99.90
2018-07-06T23:44:02.609Z,99.90
2018-07-06T23:47:27.269Z,99.90
2018-07-06T23:50:51.980Z,99.90
2018-07-06T23:54:16.902Z,99.90
2018-07-06T23:57:41.865Z,99.90
